sensor_id;sensor_type;location;lat;lon;timestamp;pressure;altitude;pressure_sealevel;temperature;humidity
84524;BME280;74765;44.538;18.668;2024-03-25T06:53:21;98398.72;;;8.02;62.41
84524;BME280;74765;44.538;18.668;2024-03-25T06:55:52;98392.91;;;8.26;61.59
84524;BME280;74765;44.538;18.668;2024-03-25T06:58:19;98389.91;;;8.43;61.75
84524;BME280;74765;44.538;18.668;2024-03-25T07:00:48;98389.09;;;8.42;60.90
84524;BME280;74765;44.538;18.668;2024-03-25T07:03:18;98398.00;;;8.69;59.75
84524;BME280;74765;44.538;18.668;2024-03-25T07:05:49;98397.81;;;8.77;59.87
84524;BME280;74765;44.538;18.668;2024-03-25T07:08:26;98400.09;;;8.87;59.02
84524;BME280;74765;44.538;18.668;2024-03-25T07:11:06;98400.75;;;9.15;59.30
84524;BME280;74765;44.538;18.668;2024-03-25T07:13:32;98393.78;;;9.47;59.37
84524;BME280;74765;44.538;18.668;2024-03-25T07:16:02;98395.44;;;9.35;57.94
84524;BME280;74765;44.538;18.668;2024-03-25T07:18:28;98400.13;;;9.85;57.49
84524;BME280;74765;44.538;18.668;2024-03-25T07:20:55;98396.00;;;10.02;54.75
84524;BME280;74765;44.538;18.668;2024-03-25T07:23:21;98400.13;;;10.56;53.93
84524;BME280;74765;44.538;18.668;2024-03-25T07:25:51;98407.31;;;10.62;53.41
84524;BME280;74765;44.538;18.668;2024-03-25T07:28:22;98407.69;;;11.04;52.57
84524;BME280;74765;44.538;18.668;2024-03-25T07:30:55;98408.63;;;11.47;52.51
84524;BME280;74765;44.538;18.668;2024-03-25T07:33:21;98409.59;;;10.96;52.65
84524;BME280;74765;44.538;18.668;2024-03-25T07:35:46;98414.44;;;10.75;53.22
84524;BME280;74765;44.538;18.668;2024-03-25T07:38:12;98416.34;;;10.99;52.98
84524;BME280;74765;44.538;18.668;2024-03-25T07:40:38;98414.22;;;11.14;51.87
84524;BME280;74765;44.538;18.668;2024-03-25T07:43:07;98415.16;;;10.95;52.28
84524;BME280;74765;44.538;18.668;2024-03-25T07:45:33;98419.09;;;11.98;51.47
84524;BME280;74765;44.538;18.668;2024-03-25T07:47:59;98424.63;;;12.76;48.15
84524;BME280;74765;44.538;18.668;2024-03-25T07:50:25;98426.00;;;12.49;47.32
84524;BME280;74765;44.538;18.668;2024-03-25T07:52:51;98428.84;;;13.02;46.07
84524;BME280;74765;44.538;18.668;2024-03-25T07:55:20;98422.34;;;13.51;46.39
84524;BME280;74765;44.538;18.668;2024-03-25T08:00:43;98416.91;;;16.41;39.55
84524;BME280;74765;44.538;18.668;2024-03-25T08:03:09;98416.59;;;15.65;39.67
84524;BME280;74765;44.538;18.668;2024-03-25T08:05:36;98420.19;;;16.04;40.35
84524;BME280;74765;44.538;18.668;2024-03-25T08:08:02;98420.63;;;16.18;39.71
84524;BME280;74765;44.538;18.668;2024-03-25T08:10:34;98421.25;;;17.61;37.32
84524;BME280;74765;44.538;18.668;2024-03-25T08:13:01;98422.16;;;17.44;38.37
84524;BME280;74765;44.538;18.668;2024-03-25T08:15:27;98429.63;;;17.32;37.38
84524;BME280;74765;44.538;18.668;2024-03-25T08:17:54;98425.31;;;17.63;35.99
84524;BME280;74765;44.538;18.668;2024-03-25T08:20:20;98416.50;;;18.10;34.05
84524;BME280;74765;44.538;18.668;2024-03-25T08:22:46;98415.91;;;17.66;35.90
84524;BME280;74765;44.538;18.668;2024-03-25T08:25:12;98418.28;;;16.82;36.95
84524;BME280;74765;44.538;18.668;2024-03-25T08:27:38;98414.78;;;16.43;38.04
84524;BME280;74765;44.538;18.668;2024-03-25T08:30:04;98413.50;;;17.42;36.48
84524;BME280;74765;44.538;18.668;2024-03-25T08:32:31;98408.94;;;18.17;35.97
84524;BME280;74765;44.538;18.668;2024-03-25T08:35:02;98397.66;;;18.82;34.26
84524;BME280;74765;44.538;18.668;2024-03-25T08:37:27;98402.91;;;19.19;33.85
84524;BME280;74765;44.538;18.668;2024-03-25T08:39:53;98403.22;;;20.19;32.65
84524;BME280;74765;44.538;18.668;2024-03-25T08:42:20;98406.50;;;19.45;32.30
84524;BME280;74765;44.538;18.668;2024-03-25T08:44:47;98410.22;;;18.46;35.74
84524;BME280;74765;44.538;18.668;2024-03-25T08:47:13;98412.81;;;18.83;34.12
84524;BME280;74765;44.538;18.668;2024-03-25T08:49:39;98409.94;;;20.57;32.47
84524;BME280;74765;44.538;18.668;2024-03-25T08:52:05;98407.28;;;20.21;31.19
84524;BME280;74765;44.538;18.668;2024-03-25T08:54:36;98406.78;;;19.63;32.07
84524;BME280;74765;44.538;18.668;2024-03-25T08:57:03;98408.44;;;20.84;31.09
84524;BME280;74765;44.538;18.668;2024-03-25T08:59:30;98407.75;;;20.53;30.13
84524;BME280;74765;44.538;18.668;2024-03-25T09:01:56;98401.81;;;21.06;30.42
84524;BME280;74765;44.538;18.668;2024-03-25T09:04:22;98402.94;;;21.00;30.46
84524;BME280;74765;44.538;18.668;2024-03-25T09:06:48;98397.75;;;21.52;30.93
84524;BME280;74765;44.538;18.668;2024-03-25T09:09:14;98402.81;;;22.27;28.80
84524;BME280;74765;44.538;18.668;2024-03-25T09:11:58;98396.47;;;21.73;29.19
84524;BME280;74765;44.538;18.668;2024-03-25T09:14:27;98400.38;;;21.96;28.23
84524;BME280;74765;44.538;18.668;2024-03-25T09:17:07;98401.25;;;21.09;31.43
84524;BME280;74765;44.538;18.668;2024-03-25T09:19:33;98403.75;;;20.10;31.24
84524;BME280;74765;44.538;18.668;2024-03-25T09:21:59;98405.97;;;19.83;31.24
84524;BME280;74765;44.538;18.668;2024-03-25T09:24:25;98402.41;;;20.33;30.83
84524;BME280;74765;44.538;18.668;2024-03-25T09:26:50;98405.06;;;20.43;30.83
84524;BME280;74765;44.538;18.668;2024-03-25T09:29:17;98399.97;;;19.91;32.86
84524;BME280;74765;44.538;18.668;2024-03-25T09:31:43;98406.72;;;20.24;30.95
84524;BME280;74765;44.538;18.668;2024-03-25T09:34:09;98401.34;;;19.53;32.16
84524;BME280;74765;44.538;18.668;2024-03-25T09:36:35;98399.97;;;20.01;31.75
84524;BME280;74765;44.538;18.668;2024-03-25T09:39:02;98402.16;;;19.89;31.41
84524;BME280;74765;44.538;18.668;2024-03-25T09:41:32;98396.97;;;20.38;31.57
84524;BME280;74765;44.538;18.668;2024-03-25T09:44:03;98395.06;;;20.24;28.96
84524;BME280;74765;44.538;18.668;2024-03-25T09:46:31;98398.91;;;20.87;29.67
84524;BME280;74765;44.538;18.668;2024-03-25T09:52:08;98391.75;;;20.52;29.57
84524;BME280;74765;44.538;18.668;2024-03-25T09:54:34;98390.50;;;19.58;31.88
84524;BME280;74765;44.538;18.668;2024-03-25T09:57:01;98396.63;;;18.98;30.93
84524;BME280;74765;44.538;18.668;2024-03-25T09:59:27;98390.47;;;19.43;30.71
84524;BME280;74765;44.538;18.668;2024-03-25T10:02:17;98384.56;;;19.72;29.69
84524;BME280;74765;44.538;18.668;2024-03-25T10:04:53;98375.28;;;19.22;30.14
84524;BME280;74765;44.538;18.668;2024-03-25T10:07:23;98379.84;;;19.06;30.23
84524;BME280;74765;44.538;18.668;2024-03-25T10:09:55;98369.63;;;19.54;30.60
84524;BME280;74765;44.538;18.668;2024-03-25T10:12:27;98380.16;;;19.96;30.80
84524;BME280;74765;44.538;18.668;2024-03-25T10:14:54;98379.09;;;19.97;29.73
84524;BME280;74765;44.538;18.668;2024-03-25T10:17:19;98370.09;;;20.22;29.75
84524;BME280;74765;44.538;18.668;2024-03-25T10:19:45;98372.78;;;20.27;30.24
84524;BME280;74765;44.538;18.668;2024-03-25T10:22:12;98362.84;;;19.56;28.83
84524;BME280;74765;44.538;18.668;2024-03-25T10:27:10;98350.50;;;20.40;28.12
84524;BME280;74765;44.538;18.668;2024-03-25T10:29:40;98349.75;;;20.09;29.11
84524;BME280;74765;44.538;18.668;2024-03-25T10:32:06;98351.34;;;20.15;29.84
84524;BME280;74765;44.538;18.668;2024-03-25T10:34:32;98345.28;;;20.53;28.60
84524;BME280;74765;44.538;18.668;2024-03-25T10:36:58;98351.50;;;21.18;26.24
84524;BME280;74765;44.538;18.668;2024-03-25T10:39:31;98346.97;;;20.34;25.98
84524;BME280;74765;44.538;18.668;2024-03-25T10:41:58;98343.00;;;19.91;28.61
84524;BME280;74765;44.538;18.668;2024-03-25T10:44:30;98331.09;;;19.42;27.99
84524;BME280;74765;44.538;18.668;2024-03-25T10:47:03;98326.50;;;19.42;27.96
84524;BME280;74765;44.538;18.668;2024-03-25T10:49:40;98330.31;;;19.67;28.67
84524;BME280;74765;44.538;18.668;2024-03-25T10:52:13;98321.56;;;18.94;28.55
84524;BME280;74765;44.538;18.668;2024-03-25T10:54:43;98327.53;;;18.91;29.63
84524;BME280;74765;44.538;18.668;2024-03-25T10:57:13;98336.13;;;18.62;29.74
84524;BME280;74765;44.538;18.668;2024-03-25T11:03:11;98330.53;;;19.24;28.07
84524;BME280;74765;44.538;18.668;2024-03-25T11:05:37;98324.84;;;19.26;28.46
84524;BME280;74765;44.538;18.668;2024-03-25T11:08:14;98316.19;;;19.34;27.03
84524;BME280;74765;44.538;18.668;2024-03-25T11:10:41;98321.31;;;19.15;26.89
84524;BME280;74765;44.538;18.668;2024-03-25T11:13:17;98317.84;;;19.50;28.09
84524;BME280;74765;44.538;18.668;2024-03-25T11:15:45;98315.09;;;19.81;27.09
84524;BME280;74765;44.538;18.668;2024-03-25T11:18:14;98310.22;;;19.67;27.16
84524;BME280;74765;44.538;18.668;2024-03-25T11:20:42;98305.00;;;19.91;27.98
84524;BME280;74765;44.538;18.668;2024-03-25T11:23:09;98307.19;;;19.99;28.64
84524;BME280;74765;44.538;18.668;2024-03-25T11:25:37;98308.97;;;20.29;25.99
84524;BME280;74765;44.538;18.668;2024-03-25T11:28:07;98302.47;;;20.30;28.02
84524;BME280;74765;44.538;18.668;2024-03-25T11:30:33;98296.94;;;19.26;27.16
84524;BME280;74765;44.538;18.668;2024-03-25T11:33:04;98294.50;;;19.59;27.42
84524;BME280;74765;44.538;18.668;2024-03-25T11:35:37;98289.09;;;19.59;27.22
84524;BME280;74765;44.538;18.668;2024-03-25T11:38:06;98290.72;;;19.50;26.29
84524;BME280;74765;44.538;18.668;2024-03-25T11:40:32;98287.44;;;19.69;27.65
84524;BME280;74765;44.538;18.668;2024-03-25T11:43:06;98294.66;;;20.08;25.65
84524;BME280;74765;44.538;18.668;2024-03-25T11:45:35;98287.44;;;19.63;27.82
84524;BME280;74765;44.538;18.668;2024-03-25T11:48:00;98288.81;;;20.50;26.14
84524;BME280;74765;44.538;18.668;2024-03-25T11:50:29;98289.13;;;20.39;26.54
84524;BME280;74765;44.538;18.668;2024-03-25T11:53:05;98285.53;;;19.69;25.17
84524;BME280;74765;44.538;18.668;2024-03-25T11:55:31;98282.59;;;19.60;24.34
84524;BME280;74765;44.538;18.668;2024-03-25T11:58:00;98290.13;;;18.67;25.19
84524;BME280;74765;44.538;18.668;2024-03-25T12:00:29;98286.31;;;18.73;25.47
84524;BME280;74765;44.538;18.668;2024-03-25T12:02:55;98292.31;;;19.06;24.62
84524;BME280;74765;44.538;18.668;2024-03-25T12:05:26;98290.31;;;18.51;25.00
84524;BME280;74765;44.538;18.668;2024-03-25T12:08:11;98284.72;;;18.98;25.75
84524;BME280;74765;44.538;18.668;2024-03-25T12:10:38;98283.09;;;19.07;24.98
84524;BME280;74765;44.538;18.668;2024-03-25T12:13:25;98280.16;;;19.18;24.56
84524;BME280;74765;44.538;18.668;2024-03-25T12:15:55;98283.97;;;19.48;24.82
84524;BME280;74765;44.538;18.668;2024-03-25T12:18:21;98283.03;;;19.93;26.03
84524;BME280;74765;44.538;18.668;2024-03-25T12:20:48;98284.13;;;19.92;24.88
84524;BME280;74765;44.538;18.668;2024-03-25T12:23:31;98279.59;;;19.57;23.21
84524;BME280;74765;44.538;18.668;2024-03-25T12:26:01;98277.69;;;19.07;23.39
84524;BME280;74765;44.538;18.668;2024-03-25T12:28:30;98276.59;;;19.63;22.14
84524;BME280;74765;44.538;18.668;2024-03-25T12:30:56;98278.78;;;19.41;23.87
84524;BME280;74765;44.538;18.668;2024-03-25T12:33:23;98274.28;;;18.29;22.57
84524;BME280;74765;44.538;18.668;2024-03-25T12:35:50;98267.84;;;17.88;23.79
84524;BME280;74765;44.538;18.668;2024-03-25T12:38:26;98267.63;;;18.67;25.44
84524;BME280;74765;44.538;18.668;2024-03-25T12:40:54;98268.22;;;19.19;24.49
84524;BME280;74765;44.538;18.668;2024-03-25T12:43:34;98261.69;;;19.36;23.96
84524;BME280;74765;44.538;18.668;2024-03-25T12:46:01;98257.91;;;19.32;24.54
84524;BME280;74765;44.538;18.668;2024-03-25T12:48:27;98262.50;;;19.01;24.50
84524;BME280;74765;44.538;18.668;2024-03-25T12:50:52;98259.53;;;19.07;24.33
84524;BME280;74765;44.538;18.668;2024-03-25T12:53:21;98256.03;;;18.82;24.14
84524;BME280;74765;44.538;18.668;2024-03-25T12:55:47;98251.94;;;18.84;24.33
84524;BME280;74765;44.538;18.668;2024-03-25T12:58:13;98252.22;;;19.03;24.51
84524;BME280;74765;44.538;18.668;2024-03-25T13:00:39;98251.69;;;18.86;21.48
84524;BME280;74765;44.538;18.668;2024-03-25T13:03:10;98244.66;;;19.00;22.21
84524;BME280;74765;44.538;18.668;2024-03-25T13:05:38;98239.50;;;18.98;21.79
84524;BME280;74765;44.538;18.668;2024-03-25T13:08:04;98232.16;;;18.78;21.00
84524;BME280;74765;44.538;18.668;2024-03-25T13:10:40;98235.28;;;18.30;21.02
84524;BME280;74765;44.538;18.668;2024-03-25T13:13:19;98233.09;;;18.17;22.41
84524;BME280;74765;44.538;18.668;2024-03-25T13:15:45;98227.19;;;18.35;22.83
84524;BME280;74765;44.538;18.668;2024-03-25T13:18:11;98229.19;;;18.85;21.73
84524;BME280;74765;44.538;18.668;2024-03-25T13:20:40;98226.50;;;18.85;21.54
84524;BME280;74765;44.538;18.668;2024-03-25T13:23:09;98223.94;;;18.33;20.33
84524;BME280;74765;44.538;18.668;2024-03-25T13:25:35;98215.19;;;18.11;20.54
84524;BME280;74765;44.538;18.668;2024-03-25T13:28:03;98219.44;;;18.74;20.29
84524;BME280;74765;44.538;18.668;2024-03-25T13:30:49;98213.19;;;18.63;21.40
84524;BME280;74765;44.538;18.668;2024-03-25T13:33:19;98221.59;;;19.22;21.55
84524;BME280;74765;44.538;18.668;2024-03-25T13:35:45;98225.13;;;19.33;21.94
84524;BME280;74765;44.538;18.668;2024-03-25T13:38:11;98225.06;;;19.69;21.35
84524;BME280;74765;44.538;18.668;2024-03-25T13:40:37;98225.56;;;19.86;21.28
84524;BME280;74765;44.538;18.668;2024-03-25T13:43:03;98223.75;;;20.25;21.12
84524;BME280;74765;44.538;18.668;2024-03-25T13:45:30;98211.88;;;20.11;22.19
84524;BME280;74765;44.538;18.668;2024-03-25T13:47:56;98212.47;;;20.03;22.88
84524;BME280;74765;44.538;18.668;2024-03-25T13:50:22;98212.91;;;19.51;21.74
84524;BME280;74765;44.538;18.668;2024-03-25T13:52:48;98212.59;;;19.67;20.87
84524;BME280;74765;44.538;18.668;2024-03-25T13:55:14;98208.28;;;19.56;21.09
84524;BME280;74765;44.538;18.668;2024-03-25T13:57:40;98204.25;;;19.34;22.41
84524;BME280;74765;44.538;18.668;2024-03-25T14:00:06;98198.53;;;19.40;22.19
84524;BME280;74765;44.538;18.668;2024-03-25T14:02:37;98192.63;;;18.67;22.09
84524;BME280;74765;44.538;18.668;2024-03-25T14:05:05;98192.91;;;18.91;21.19
84524;BME280;74765;44.538;18.668;2024-03-25T14:07:33;98188.53;;;19.15;22.92
84524;BME280;74765;44.538;18.668;2024-03-25T14:10:03;98195.63;;;18.91;22.42
84524;BME280;74765;44.538;18.668;2024-03-25T14:12:41;98191.00;;;18.76;21.95
84524;BME280;74765;44.538;18.668;2024-03-25T14:15:27;98188.50;;;18.45;22.68
84524;BME280;74765;44.538;18.668;2024-03-25T14:18:00;98180.44;;;18.70;21.90
84524;BME280;74765;44.538;18.668;2024-03-25T14:20:46;98186.94;;;18.64;21.37
84524;BME280;74765;44.538;18.668;2024-03-25T14:23:21;98192.34;;;18.84;22.17
84524;BME280;74765;44.538;18.668;2024-03-25T14:25:47;98193.03;;;18.14;20.86
84524;BME280;74765;44.538;18.668;2024-03-25T14:28:15;98190.94;;;18.36;21.46
84524;BME280;74765;44.538;18.668;2024-03-25T14:30:41;98192.06;;;18.55;22.82
84524;BME280;74765;44.538;18.668;2024-03-25T14:33:06;98193.56;;;18.16;22.38
84524;BME280;74765;44.538;18.668;2024-03-25T14:35:33;98192.22;;;18.13;21.92
84524;BME280;74765;44.538;18.668;2024-03-25T14:37:59;98187.41;;;18.41;22.62
84524;BME280;74765;44.538;18.668;2024-03-25T14:40:24;98181.41;;;18.18;22.00
84524;BME280;74765;44.538;18.668;2024-03-25T14:42:50;98186.03;;;18.23;22.50
84524;BME280;74765;44.538;18.668;2024-03-25T14:45:16;98184.97;;;18.39;22.61
84524;BME280;74765;44.538;18.668;2024-03-25T14:47:43;98173.88;;;18.41;22.07
84524;BME280;74765;44.538;18.668;2024-03-25T14:50:09;98179.53;;;18.19;23.53
84524;BME280;74765;44.538;18.668;2024-03-25T14:52:35;98181.09;;;18.00;22.30
84524;BME280;74765;44.538;18.668;2024-03-25T14:55:04;98187.38;;;18.20;22.47
84524;BME280;74765;44.538;18.668;2024-03-25T14:57:30;98176.84;;;18.44;21.85
84524;BME280;74765;44.538;18.668;2024-03-25T14:59:56;98171.16;;;18.30;22.87
84524;BME280;74765;44.538;18.668;2024-03-25T15:02:22;98174.03;;;17.93;21.50
84524;BME280;74765;44.538;18.668;2024-03-25T15:04:48;98171.78;;;17.65;22.22
84524;BME280;74765;44.538;18.668;2024-03-25T15:07:42;98171.91;;;17.96;22.91
84524;BME280;74765;44.538;18.668;2024-03-25T15:10:10;98174.28;;;17.87;22.77
84524;BME280;74765;44.538;18.668;2024-03-25T15:12:39;98174.28;;;17.87;22.49
84524;BME280;74765;44.538;18.668;2024-03-25T15:15:06;98172.59;;;17.71;22.85
84524;BME280;74765;44.538;18.668;2024-03-25T15:17:38;98173.84;;;18.20;24.24
84524;BME280;74765;44.538;18.668;2024-03-25T15:20:04;98179.81;;;18.27;22.69
84524;BME280;74765;44.538;18.668;2024-03-25T15:22:33;98173.59;;;18.27;22.79
84524;BME280;74765;44.538;18.668;2024-03-25T15:24:59;98174.03;;;17.88;22.70
84524;BME280;74765;44.538;18.668;2024-03-25T15:27:26;98171.78;;;17.70;22.23
84524;BME280;74765;44.538;18.668;2024-03-25T15:29:52;98173.94;;;17.68;22.37
84524;BME280;74765;44.538;18.668;2024-03-25T15:32:18;98168.53;;;17.73;23.46
84524;BME280;74765;44.538;18.668;2024-03-25T15:34:44;98165.91;;;17.88;24.14
84524;BME280;74765;44.538;18.668;2024-03-25T15:37:10;98169.19;;;18.06;23.91
84524;BME280;74765;44.538;18.668;2024-03-25T15:39:36;98166.44;;;17.80;22.23
84524;BME280;74765;44.538;18.668;2024-03-25T15:42:04;98164.69;;;17.59;22.80
84524;BME280;74765;44.538;18.668;2024-03-25T15:44:37;98161.50;;;17.62;22.18
84524;BME280;74765;44.538;18.668;2024-03-25T15:47:03;98164.22;;;17.67;22.42
84524;BME280;74765;44.538;18.668;2024-03-25T15:49:29;98163.81;;;17.54;22.85
84524;BME280;74765;44.538;18.668;2024-03-25T15:52:02;98174.66;;;17.48;24.14
84524;BME280;74765;44.538;18.668;2024-03-25T15:54:34;98160.84;;;17.50;23.32
84524;BME280;74765;44.538;18.668;2024-03-25T15:57:00;98167.91;;;17.56;24.26
84524;BME280;74765;44.538;18.668;2024-03-25T15:59:25;98156.91;;;17.68;23.17
84524;BME280;74765;44.538;18.668;2024-03-25T16:01:51;98153.03;;;17.48;24.21
84524;BME280;74765;44.538;18.668;2024-03-25T16:04:17;98167.06;;;17.50;22.98
84524;BME280;74765;44.538;18.668;2024-03-25T16:06:44;98168.84;;;17.30;23.40
84524;BME280;74765;44.538;18.668;2024-03-25T16:09:10;98161.06;;;16.91;23.99
84524;BME280;74765;44.538;18.668;2024-03-25T16:11:36;98162.72;;;17.02;23.72
84524;BME280;74765;44.538;18.668;2024-03-25T16:14:04;98168.00;;;16.87;24.24
84524;BME280;74765;44.538;18.668;2024-03-25T16:16:30;98157.00;;;16.94;25.84
84524;BME280;74765;44.538;18.668;2024-03-25T16:18:56;98155.16;;;16.99;23.60
84524;BME280;74765;44.538;18.668;2024-03-25T16:21:22;98166.13;;;16.88;24.00
84524;BME280;74765;44.538;18.668;2024-03-25T16:23:51;98156.31;;;16.72;24.36
84524;BME280;74765;44.538;18.668;2024-03-25T16:26:17;98165.84;;;16.84;24.67
84524;BME280;74765;44.538;18.668;2024-03-25T16:28:46;98168.41;;;17.01;26.40
84524;BME280;74765;44.538;18.668;2024-03-25T16:31:12;98170.38;;;17.11;26.39
84524;BME280;74765;44.538;18.668;2024-03-25T16:33:38;98171.00;;;17.28;25.00
84524;BME280;74765;44.538;18.668;2024-03-25T16:36:06;98166.88;;;17.20;24.54
84524;BME280;74765;44.538;18.668;2024-03-25T16:38:32;98166.41;;;16.86;28.01
84524;BME280;74765;44.538;18.668;2024-03-25T16:40:58;98172.22;;;16.73;27.01
84524;BME280;74765;44.538;18.668;2024-03-25T16:43:25;98171.44;;;16.46;28.48
84524;BME280;74765;44.538;18.668;2024-03-25T16:45:53;98179.13;;;16.32;28.46
84524;BME280;74765;44.538;18.668;2024-03-25T16:48:19;98182.13;;;16.09;28.09
84524;BME280;74765;44.538;18.668;2024-03-25T16:50:45;98182.03;;;15.77;27.47
84524;BME280;74765;44.538;18.668;2024-03-25T16:53:11;98178.31;;;15.61;26.05
84524;BME280;74765;44.538;18.668;2024-03-25T16:55:39;98186.53;;;15.33;30.58
84524;BME280;74765;44.538;18.668;2024-03-25T16:58:07;98183.28;;;15.31;30.86
84524;BME280;74765;44.538;18.668;2024-03-25T17:00:33;98173.75;;;15.07;29.94
84524;BME280;74765;44.538;18.668;2024-03-25T17:02:59;98181.94;;;14.78;30.96
84524;BME280;74765;44.538;18.668;2024-03-25T17:05:25;98182.78;;;14.62;29.86
84524;BME280;74765;44.538;18.668;2024-03-25T17:07:51;98177.53;;;14.56;30.94
84524;BME280;74765;44.538;18.668;2024-03-25T17:10:16;98184.06;;;14.60;31.28
84524;BME280;74765;44.538;18.668;2024-03-25T17:12:42;98178.59;;;14.71;30.26
84524;BME280;74765;44.538;18.668;2024-03-25T17:15:08;98181.19;;;14.50;30.31
84524;BME280;74765;44.538;18.668;2024-03-25T17:17:35;98180.16;;;14.22;32.43
84524;BME280;74765;44.538;18.668;2024-03-25T17:20:02;98178.19;;;14.18;32.61
84524;BME280;74765;44.538;18.668;2024-03-25T17:22:28;98174.53;;;14.24;32.65
84524;BME280;74765;44.538;18.668;2024-03-25T17:24:54;98174.16;;;14.03;32.62
84524;BME280;74765;44.538;18.668;2024-03-25T17:27:20;98179.50;;;14.15;32.41
84524;BME280;74765;44.538;18.668;2024-03-25T17:29:49;98184.25;;;13.96;34.84
84524;BME280;74765;44.538;18.668;2024-03-25T17:32:14;98181.41;;;14.03;36.54
84524;BME280;74765;44.538;18.668;2024-03-25T17:34:40;98190.59;;;13.79;36.84
84524;BME280;74765;44.538;18.668;2024-03-25T17:37:06;98194.84;;;13.63;36.98
84524;BME280;74765;44.538;18.668;2024-03-25T17:39:32;98199.41;;;13.63;35.18
84524;BME280;74765;44.538;18.668;2024-03-25T17:41:57;98195.94;;;13.39;35.71
84524;BME280;74765;44.538;18.668;2024-03-25T17:44:23;98197.94;;;13.43;34.85
84524;BME280;74765;44.538;18.668;2024-03-25T17:46:49;98195.28;;;13.20;35.07
84524;BME280;74765;44.538;18.668;2024-03-25T17:49:17;98192.22;;;13.17;35.07
84524;BME280;74765;44.538;18.668;2024-03-25T17:51:43;98193.84;;;13.06;35.08
84524;BME280;74765;44.538;18.668;2024-03-25T17:54:09;98193.75;;;13.12;35.40
84524;BME280;74765;44.538;18.668;2024-03-25T17:56:34;98195.81;;;13.10;35.49
84524;BME280;74765;44.538;18.668;2024-03-25T17:59:00;98198.03;;;13.02;35.54
84524;BME280;74765;44.538;18.668;2024-03-25T18:01:27;98204.09;;;12.97;35.76
84524;BME280;74765;44.538;18.668;2024-03-25T18:03:53;98209.22;;;12.99;35.41
84524;BME280;74765;44.538;18.668;2024-03-25T18:06:18;98209.44;;;12.97;35.44
84524;BME280;74765;44.538;18.668;2024-03-25T18:08:44;98216.00;;;12.90;36.06
84524;BME280;74765;44.538;18.668;2024-03-25T18:11:10;98217.34;;;12.69;36.28
84524;BME280;74765;44.538;18.668;2024-03-25T18:13:36;98218.38;;;12.56;35.97
84524;BME280;74765;44.538;18.668;2024-03-25T18:16:02;98224.34;;;12.58;36.22
84524;BME280;74765;44.538;18.668;2024-03-25T18:18:27;98225.47;;;12.51;36.25
84524;BME280;74765;44.538;18.668;2024-03-25T18:20:53;98238.75;;;12.46;36.17
84524;BME280;74765;44.538;18.668;2024-03-25T18:23:19;98228.44;;;12.31;36.52
84524;BME280;74765;44.538;18.668;2024-03-25T18:25:45;98240.84;;;12.14;37.07
84524;BME280;74765;44.538;18.668;2024-03-25T18:28:12;98246.53;;;12.06;36.54
84524;BME280;74765;44.538;18.668;2024-03-25T18:30:38;98240.78;;;11.29;38.04
84524;BME280;74765;44.538;18.668;2024-03-25T18:33:05;98242.41;;;11.73;37.88
84524;BME280;74765;44.538;18.668;2024-03-25T18:35:40;98243.84;;;11.51;39.21
84524;BME280;74765;44.538;18.668;2024-03-25T18:38:06;98250.16;;;11.57;39.38
84524;BME280;74765;44.538;18.668;2024-03-25T18:40:32;98248.47;;;11.44;39.37
84524;BME280;74765;44.538;18.668;2024-03-25T18:42:58;98245.63;;;11.39;39.49
84524;BME280;74765;44.538;18.668;2024-03-25T18:45:24;98246.25;;;11.59;39.75
84524;BME280;74765;44.538;18.668;2024-03-25T18:47:50;98244.59;;;11.40;40.52
84524;BME280;74765;44.538;18.668;2024-03-25T18:50:16;98247.47;;;11.20;40.84
84524;BME280;74765;44.538;18.668;2024-03-25T18:52:42;98247.38;;;11.27;40.55
84524;BME280;74765;44.538;18.668;2024-03-25T18:55:08;98250.34;;;11.19;41.05
84524;BME280;74765;44.538;18.668;2024-03-25T18:57:34;98247.97;;;11.11;41.23
84524;BME280;74765;44.538;18.668;2024-03-25T19:00:00;98250.69;;;10.55;42.26
84524;BME280;74765;44.538;18.668;2024-03-25T19:02:26;98256.81;;;10.24;42.38
84524;BME280;74765;44.538;18.668;2024-03-25T19:04:52;98250.91;;;10.46;42.04
84524;BME280;74765;44.538;18.668;2024-03-25T19:07:18;98254.97;;;10.24;42.62
84524;BME280;74765;44.538;18.668;2024-03-25T19:09:44;98259.66;;;10.29;42.39
84524;BME280;74765;44.538;18.668;2024-03-25T19:12:09;98259.31;;;10.81;41.86
84524;BME280;74765;44.538;18.668;2024-03-25T19:14:35;98257.09;;;10.47;42.75
84524;BME280;74765;44.538;18.668;2024-03-25T19:17:01;98263.28;;;10.72;42.38
84524;BME280;74765;44.538;18.668;2024-03-25T19:19:27;98273.41;;;9.88;43.87
84524;BME280;74765;44.538;18.668;2024-03-25T19:21:52;98259.31;;;10.19;43.50
84524;BME280;74765;44.538;18.668;2024-03-25T19:24:18;98263.28;;;10.41;42.95
84524;BME280;74765;44.538;18.668;2024-03-25T19:26:44;98266.22;;;10.33;43.15
84524;BME280;74765;44.538;18.668;2024-03-25T19:29:10;98268.91;;;10.64;43.03
84524;BME280;74765;44.538;18.668;2024-03-25T19:31:36;98265.84;;;9.78;44.41
84524;BME280;74765;44.538;18.668;2024-03-25T19:34:02;98272.66;;;9.61;45.03
84524;BME280;74765;44.538;18.668;2024-03-25T19:36:28;98273.28;;;9.56;44.98
84524;BME280;74765;44.538;18.668;2024-03-25T19:38:53;98273.47;;;9.61;45.06
84524;BME280;74765;44.538;18.668;2024-03-25T19:41:20;98259.63;;;9.91;44.56
84524;BME280;74765;44.538;18.668;2024-03-25T19:43:45;98259.41;;;10.37;43.54
84524;BME280;74765;44.538;18.668;2024-03-25T19:46:11;98257.25;;;10.14;44.00
84524;BME280;74765;44.538;18.668;2024-03-25T19:48:37;98266.34;;;9.29;45.10
84524;BME280;74765;44.538;18.668;2024-03-25T19:51:03;98261.66;;;9.18;45.01
84524;BME280;74765;44.538;18.668;2024-03-25T19:53:29;98267.19;;;9.30;45.09
84524;BME280;74765;44.538;18.668;2024-03-25T19:56:01;98269.41;;;9.39;44.35
84524;BME280;74765;44.538;18.668;2024-03-25T19:58:29;98271.94;;;9.01;44.34